createdAt,value
2023-03-02T00:00:15.300Z,74.07
2023-03-02T00:02:43.359Z,74.43
2023-03-02T00:05:14.381Z,70.07
2023-03-02T00:07:43.569Z,65.40
2023-03-02T00:10:12.178Z,68.57
2023-03-02T00:12:39.863Z,72.33
2023-03-02T00:15:08.681Z,69.63
2023-03-02T00:17:37.159Z,68.93
2023-03-02T00:20:11.991Z,70.07
2023-03-02T00:22:40.526Z,69.17
2023-03-02T00:25:10.989Z,69.83
2023-03-02T00:27:38.796Z,70.57
2023-03-02T00:30:08.720Z,67.47
2023-03-02T00:32:36.527Z,73.13
2023-03-02T00:35:05.065Z,69.97
2023-03-02T00:37:32.866Z,70.20
2023-03-02T00:40:00.511Z,71.63
2023-03-02T00:42:29.513Z,71.80
2023-03-02T00:44:59.158Z,70.33
2023-03-02T00:47:26.737Z,65.07
2023-03-02T00:49:54.330Z,69.27
2023-03-02T00:52:22.552Z,64.40
2023-03-02T00:54:50.226Z,71.23
2023-03-02T00:57:18.167Z,70.77
2023-03-02T00:59:47.392Z,71.13
2023-03-02T01:02:44.723Z,59.10
2023-03-02T01:05:17.062Z,72.37
2023-03-02T01:07:44.889Z,76.13
2023-03-02T01:10:13.491Z,70.37
2023-03-02T01:12:42.810Z,71.20
2023-03-02T01:15:12.798Z,73.07
2023-03-02T01:17:42.841Z,74.60
2023-03-02T01:20:11.966Z,67.97
2023-03-02T01:22:39.757Z,63.73
2023-03-02T01:25:08.464Z,66.63
2023-03-02T01:27:36.540Z,65.73
2023-03-02T01:30:05.224Z,66.23
2023-03-02T01:32:34.270Z,66.97
2023-03-02T01:35:02.008Z,65.07
2023-03-02T01:37:29.704Z,64.27
2023-03-02T01:39:57.444Z,70.67
2023-03-02T01:42:25.092Z,62.67
2023-03-02T01:44:57.043Z,65.37
2023-03-02T01:47:27.959Z,62.73
2023-03-02T01:50:06.926Z,67.10
2023-03-02T01:52:39.501Z,57.37
2023-03-02T01:55:11.932Z,65.90
2023-03-02T01:57:44.493Z,64.97
2023-03-02T02:00:15.248Z,73.97
2023-03-02T02:02:43.359Z,73.40
2023-03-02T02:05:16.855Z,72.07
2023-03-02T02:07:45.350Z,68.10
2023-03-02T02:10:14.560Z,69.30
2023-03-02T02:12:42.521Z,66.77
2023-03-02T02:15:11.212Z,76.23
2023-03-02T02:17:39.342Z,68.27
2023-03-02T02:20:21.681Z,68.60
2023-03-02T02:22:58.347Z,69.80
2023-03-02T02:25:44.691Z,68.77
2023-03-02T02:28:19.021Z,67.57
2023-03-02T02:30:48.574Z,74.90
2023-03-02T02:33:20.748Z,69.27
2023-03-02T02:35:50.174Z,77.13
2023-03-02T02:38:20.666Z,72.70
2023-03-02T02:40:52.579Z,74.40
2023-03-02T02:43:29.590Z,74.63
2023-03-02T02:45:59.349Z,65.50
2023-03-02T02:48:31.084Z,73.93
2023-03-02T02:51:01.265Z,73.37
2023-03-02T02:53:32.878Z,72.50
2023-03-02T02:56:01.731Z,77.33
2023-03-02T02:58:36.520Z,72.33
2023-03-02T03:01:04.707Z,71.57
2023-03-02T03:03:35.211Z,77.63
2023-03-02T03:06:10.600Z,74.90
2023-03-02T03:08:54.148Z,76.63
2023-03-02T03:11:29.434Z,72.27
2023-03-02T03:14:04.515Z,80.60
2023-03-02T03:16:34.370Z,74.13
2023-03-02T03:19:07.837Z,71.13
2023-03-02T03:21:36.255Z,74.87
2023-03-02T03:24:04.516Z,77.57
2023-03-02T03:26:32.728Z,77.63
2023-03-02T03:29:02.240Z,78.83
2023-03-02T03:31:30.162Z,80.00
2023-03-02T03:34:00.531Z,80.53
2023-03-02T03:36:32.635Z,83.33
2023-03-02T03:39:01.362Z,82.37
2023-03-02T03:41:30.779Z,78.07
2023-03-02T03:43:59.025Z,82.20
2023-03-02T03:46:31.108Z,79.83
2023-03-02T03:48:59.167Z,70.77
2023-03-02T03:51:27.333Z,73.37
2023-03-02T03:54:00.688Z,77.43
2023-03-02T03:56:37.265Z,76.27
2023-03-02T03:59:09.970Z,78.70
2023-03-02T04:01:46.911Z,78.50
2023-03-02T04:04:18.553Z,72.60
2023-03-02T04:06:46.757Z,72.23
2023-03-02T04:09:15.508Z,76.03
2023-03-02T04:11:45.291Z,79.23
2023-03-02T04:14:15.251Z,76.90
2023-03-02T04:16:45.297Z,75.73
2023-03-02T04:19:14.793Z,75.10
2023-03-02T04:21:45.853Z,77.97
2023-03-02T04:24:18.226Z,81.87
2023-03-02T04:26:47.550Z,77.53
2023-03-02T04:29:15.846Z,81.67
2023-03-02T04:31:45.155Z,81.67
2023-03-02T04:34:14.034Z,78.70
2023-03-02T04:36:44.816Z,78.10
2023-03-02T04:39:16.590Z,77.10
2023-03-02T04:41:48.718Z,77.10
2023-03-02T04:44:17.644Z,76.60
2023-03-02T04:46:47.721Z,71.77
2023-03-02T04:49:17.529Z,75.93
2023-03-02T04:51:48.197Z,87.83
2023-03-02T04:54:19.143Z,84.23
2023-03-02T04:56:48.413Z,90.73
2023-03-02T04:59:16.116Z,82.23
2023-03-02T05:01:44.865Z,92.77
2023-03-02T05:04:14.425Z,86.33
2023-03-02T05:06:42.163Z,88.97
2023-03-02T05:09:09.935Z,85.10
2023-03-02T05:11:37.767Z,84.83
2023-03-02T05:14:07.684Z,77.20
2023-03-02T05:16:37.681Z,84.13
2023-03-02T05:19:07.658Z,79.30
2023-03-02T05:21:36.823Z,77.23
2023-03-02T05:24:05.015Z,77.50
2023-03-02T05:26:33.287Z,79.50
2023-03-02T05:29:01.234Z,77.47
2023-03-02T05:31:31.779Z,73.13
2023-03-02T05:33:59.459Z,77.93
2023-03-02T05:36:27.248Z,84.13
2023-03-02T05:38:56.244Z,82.20
2023-03-02T05:41:23.924Z,83.57
2023-03-02T05:43:51.893Z,81.77
2023-03-02T05:46:21.893Z,84.87
2023-03-02T05:48:50.112Z,84.97
2023-03-02T05:51:17.798Z,89.30
2023-03-02T05:53:45.521Z,91.93
2023-03-02T05:56:14.578Z,86.90
2023-03-02T05:58:42.249Z,88.43
2023-03-02T06:01:15.148Z,91.50
2023-03-02T06:03:43.274Z,92.80
2023-03-02T06:06:13.821Z,87.27
2023-03-02T06:08:41.987Z,94.70
2023-03-02T06:11:10.144Z,88.27
2023-03-02T06:13:39.664Z,94.00
2023-03-02T06:16:08.068Z,95.07
2023-03-02T06:18:36.462Z,88.10
2023-03-02T06:21:05.283Z,90.83
2023-03-02T06:23:33.375Z,93.47
2023-03-02T06:26:01.284Z,90.63
2023-03-02T06:28:29.015Z,95.83
2023-03-02T06:31:00.314Z,87.70
2023-03-02T06:33:27.967Z,89.27
2023-03-02T06:35:55.823Z,92.03
2023-03-02T06:38:24.261Z,101.73
2023-03-02T06:40:52.214Z,93.20
2023-03-02T06:43:19.874Z,91.50
2023-03-02T06:45:47.619Z,99.73
2023-03-02T06:48:16.686Z,92.60
2023-03-02T06:50:44.386Z,86.33
2023-03-02T06:53:12.070Z,93.33
2023-03-02T06:55:39.895Z,95.60
2023-03-02T06:58:07.836Z,95.43
2023-03-02T07:00:35.424Z,91.07
2023-03-02T07:03:03.495Z,93.83
2023-03-02T07:05:33.037Z,93.03
2023-03-02T07:08:01.976Z,85.27
2023-03-02T07:10:30.018Z,95.27
2023-03-02T07:12:57.735Z,94.27
2023-03-02T07:15:25.613Z,94.73
2023-03-02T07:17:53.913Z,87.23
2023-03-02T07:20:21.762Z,89.63
2023-03-02T07:22:50.834Z,89.40
2023-03-02T07:25:18.703Z,90.53
2023-03-02T07:27:46.350Z,94.63
2023-03-02T07:30:15.646Z,93.23
2023-03-02T07:32:43.447Z,83.67
2023-03-02T07:35:11.227Z,88.73
2023-03-02T07:37:38.878Z,91.83
2023-03-02T07:40:09.857Z,94.13
2023-03-02T07:42:37.524Z,94.77
2023-03-02T07:45:07.603Z,101.07
2023-03-02T07:47:35.258Z,94.87
2023-03-02T07:50:03.122Z,91.40
2023-03-02T07:52:31.532Z,92.63
2023-03-02T07:54:59.166Z,102.30
2023-03-02T07:57:28.764Z,98.13
2023-03-02T07:59:56.400Z,97.87
2023-03-02T08:02:25.399Z,106.77
2023-03-02T08:04:53.250Z,104.23
2023-03-02T08:07:20.936Z,102.27
2023-03-02T08:09:48.720Z,104.30
2023-03-02T08:12:16.447Z,112.73
2023-03-02T08:14:45.508Z,117.33
2023-03-02T08:17:13.121Z,111.80
2023-03-02T08:19:40.784Z,114.03
2023-03-02T08:22:08.505Z,119.73
2023-03-02T08:24:36.149Z,121.97
2023-03-02T08:27:04.812Z,112.83
2023-03-02T08:29:32.567Z,115.13
2023-03-02T08:32:02.046Z,121.17
2023-03-02T08:34:29.803Z,123.03
2023-03-02T08:36:57.449Z,119.17
2023-03-02T08:39:25.322Z,112.83
2023-03-02T08:41:53.882Z,126.40
2023-03-02T08:44:22.131Z,111.47
2023-03-02T08:46:50.004Z,111.73
2023-03-02T08:49:20.669Z,108.67
2023-03-02T08:51:53.230Z,100.40
2023-03-02T08:54:21.759Z,101.43
2023-03-02T08:56:50.149Z,100.10
2023-03-02T08:59:18.229Z,95.97
2023-03-02T09:01:46.212Z,90.50
2023-03-02T09:04:14.230Z,91.27
2023-03-02T09:06:45.313Z,87.37
2023-03-02T09:09:14.667Z,96.53
2023-03-02T09:11:43.542Z,100.03
2023-03-02T09:14:11.672Z,95.40
2023-03-02T09:16:39.762Z,92.57
2023-03-02T09:19:07.990Z,102.57
2023-03-02T09:21:35.819Z,93.40
2023-03-02T09:24:05.442Z,94.83
2023-03-02T09:26:33.982Z,95.80
2023-03-02T09:29:01.729Z,97.20
2023-03-02T09:31:30.485Z,86.87
2023-03-02T09:33:58.448Z,92.20
2023-03-02T09:36:27.720Z,91.53
2023-03-02T09:38:55.909Z,89.07
2023-03-02T09:41:42.515Z,87.83
2023-03-02T09:44:30.594Z,81.83
2023-03-02T09:47:04.476Z,80.13
2023-03-02T09:49:47.343Z,76.50
2023-03-02T09:52:31.027Z,76.40
2023-03-02T09:55:02.451Z,83.73
2023-03-02T09:57:34.545Z,79.83
2023-03-02T10:00:18.055Z,74.73
2023-03-02T10:02:49.745Z,75.83
2023-03-02T10:05:21.197Z,75.53
2023-03-02T10:07:49.072Z,75.30
2023-03-02T10:10:26.556Z,81.07
2023-03-02T10:13:10.173Z,77.20
2023-03-02T10:15:42.158Z,71.63
2023-03-02T10:18:20.984Z,72.07
2023-03-02T10:20:55.798Z,64.80
2023-03-02T10:23:45.400Z,66.37
2023-03-02T10:26:30.321Z,69.43
2023-03-02T10:29:05.605Z,74.30
2023-03-02T10:31:34.654Z,65.93
2023-03-02T10:34:02.331Z,64.93
2023-03-02T10:36:31.819Z,60.50
2023-03-02T10:39:01.329Z,61.27
2023-03-02T10:41:33.091Z,65.93
2023-03-02T10:44:05.578Z,64.70
2023-03-02T10:46:41.136Z,58.53
2023-03-02T10:49:26.082Z,53.20
2023-03-02T10:52:01.958Z,57.53
2023-03-02T10:54:30.525Z,53.07
2023-03-02T10:57:00.991Z,59.43
2023-03-02T10:59:43.838Z,52.23
2023-03-02T11:02:23.087Z,55.30
2023-03-02T11:04:57.445Z,50.47
2023-03-02T11:07:27.147Z,56.77
2023-03-02T11:10:03.467Z,51.08
2023-03-02T11:12:32.568Z,51.92
2023-03-02T11:15:17.501Z,47.78
2023-03-02T11:17:47.207Z,49.60
2023-03-02T11:20:18.777Z,56.17
2023-03-02T11:22:54.573Z,55.83
2023-03-02T11:25:29.340Z,46.47
2023-03-02T11:28:03.399Z,53.40
2023-03-02T11:30:37.256Z,47.75
2023-03-02T11:33:13.062Z,51.53
2023-03-02T11:35:48.730Z,47.95
2023-03-02T11:38:22.355Z,49.30
2023-03-02T11:40:54.604Z,56.95
2023-03-02T11:43:22.386Z,54.22
2023-03-02T11:45:58.581Z,59.45
2023-03-02T11:48:30.657Z,53.50
2023-03-02T11:51:00.866Z,55.80
2023-03-02T11:53:34.629Z,54.00
2023-03-02T11:56:02.868Z,54.90
2023-03-02T11:58:31.041Z,54.05
2023-03-02T12:01:02.085Z,58.25
2023-03-02T12:03:44.845Z,53.95
2023-03-02T12:06:35.435Z,58.58
2023-03-02T12:09:30.756Z,60.90
2023-03-02T12:12:01.419Z,62.95
2023-03-02T12:14:38.179Z,61.70
2023-03-02T12:17:20.775Z,59.45
2023-03-02T12:19:50.741Z,67.10
2023-03-02T12:22:28.835Z,64.07
2023-03-02T12:25:07.403Z,60.00
2023-03-02T12:27:38.031Z,59.55
2023-03-02T12:30:28.230Z,66.18
2023-03-02T12:33:17.705Z,63.13
2023-03-02T12:35:46.492Z,56.28
2023-03-02T12:38:30.787Z,62.85
2023-03-02T12:41:17.393Z,62.75
2023-03-02T12:43:56.718Z,63.35
2023-03-02T12:46:30.477Z,65.95
2023-03-02T12:49:13.211Z,76.60
2023-03-02T12:51:55.636Z,62.72
2023-03-02T12:54:25.031Z,69.53
2023-03-02T12:57:06.223Z,69.82
2023-03-02T12:59:34.141Z,66.20
2023-03-02T13:02:06.870Z,60.05
2023-03-02T13:04:35.828Z,75.68
2023-03-02T13:07:03.585Z,74.95
2023-03-02T13:09:32.199Z,69.70
2023-03-02T13:11:59.940Z,64.80
2023-03-02T13:14:29.420Z,68.00
2023-03-02T13:16:59.135Z,64.47
2023-03-02T13:19:30.518Z,63.47
2023-03-02T13:22:00.749Z,68.88
2023-03-02T13:24:34.070Z,66.35
2023-03-02T13:27:06.707Z,66.50
2023-03-02T13:29:35.391Z,68.15
2023-03-02T13:32:17.731Z,72.72
2023-03-02T13:34:50.900Z,64.65
2023-03-02T13:37:34.920Z,68.22
2023-03-02T13:40:05.068Z,64.50
2023-03-02T13:42:37.151Z,65.03
2023-03-02T13:45:27.216Z,62.03
2023-03-02T13:47:56.688Z,61.85
2023-03-02T13:50:26.538Z,66.63
2023-03-02T13:52:57.368Z,64.85
2023-03-02T13:55:25.771Z,58.70
2023-03-02T13:57:55.385Z,63.60
2023-03-02T14:00:27.712Z,55.42
2023-03-02T14:02:55.523Z,57.90
2023-03-02T14:05:26.689Z,63.92
2023-03-02T14:07:55.809Z,58.70
2023-03-02T14:10:23.563Z,53.08
2023-03-02T14:12:57.031Z,54.78
2023-03-02T14:15:25.755Z,55.28
2023-03-02T14:17:53.626Z,63.28
2023-03-02T14:20:21.738Z,55.53
2023-03-02T14:22:50.499Z,58.28
2023-03-02T14:25:20.456Z,62.58
2023-03-02T14:27:48.129Z,66.03
2023-03-02T14:30:18.775Z,55.35
2023-03-02T14:32:47.143Z,59.97
2023-03-02T14:35:16.784Z,54.17
2023-03-02T14:37:46.516Z,51.22
2023-03-02T14:40:22.760Z,51.10
2023-03-02T14:42:51.728Z,49.08
2023-03-02T14:45:19.562Z,55.75
2023-03-02T14:47:47.310Z,58.42
2023-03-02T14:50:16.382Z,54.70
2023-03-02T14:52:49.018Z,51.83
2023-03-02T14:55:28.602Z,51.80
2023-03-02T14:57:58.985Z,51.85
2023-03-02T15:00:27.427Z,51.00
2023-03-02T15:02:55.382Z,51.75
2023-03-02T15:05:23.262Z,53.92
2023-03-02T15:07:53.572Z,47.08
2023-03-02T15:10:23.205Z,52.38
2023-03-02T15:12:52.570Z,52.28
2023-03-02T15:15:20.328Z,51.90
2023-03-02T15:17:48.167Z,52.50
2023-03-02T15:20:16.998Z,48.50
2023-03-02T15:22:44.969Z,48.85
2023-03-02T15:25:12.618Z,53.95
2023-03-02T15:27:41.443Z,48.38
2023-03-02T15:30:12.327Z,48.17
2023-03-02T15:32:40.605Z,51.00
2023-03-02T15:35:09.282Z,49.20
2023-03-02T15:37:36.996Z,57.55
2023-03-02T15:40:05.237Z,59.55
2023-03-02T15:42:33.180Z,54.92
2023-03-02T15:45:00.904Z,54.50
2023-03-02T15:47:29.935Z,48.63
2023-03-02T15:49:57.614Z,51.80
2023-03-02T15:52:25.418Z,55.92
2023-03-02T15:54:53.146Z,50.90
2023-03-02T15:57:20.791Z,53.45
2023-03-02T15:59:48.468Z,53.55
2023-03-02T16:02:16.197Z,60.03
2023-03-02T16:04:45.253Z,54.15
2023-03-02T16:07:12.997Z,54.60
2023-03-02T16:09:40.855Z,45.88
2023-03-02T16:12:08.560Z,52.83
2023-03-02T16:14:36.191Z,48.05
2023-03-02T16:17:03.861Z,53.45
2023-03-02T16:19:32.220Z,52.30
2023-03-02T16:22:01.168Z,51.22
2023-03-02T16:24:29.440Z,53.85
2023-03-02T16:26:57.102Z,55.60
2023-03-02T16:29:25.114Z,52.63
2023-03-02T16:31:53.067Z,54.38
2023-03-02T16:34:20.937Z,48.85
2023-03-02T16:36:48.624Z,55.35
2023-03-02T16:39:17.629Z,60.13
2023-03-02T16:41:46.091Z,63.58
2023-03-02T16:44:14.502Z,74.18
2023-03-02T16:46:43.656Z,70.38
2023-03-02T16:49:11.816Z,72.90
2023-03-02T16:51:40.404Z,78.68
2023-03-02T16:54:08.111Z,83.53
2023-03-02T16:56:37.133Z,73.25
2023-03-02T16:59:04.810Z,80.68
2023-03-02T17:01:32.535Z,81.53
2023-03-02T17:04:00.520Z,75.22
2023-03-02T17:06:28.336Z,70.10
2023-03-02T17:08:56.051Z,67.03
2023-03-02T17:11:23.973Z,67.67
2023-03-02T17:13:53.052Z,63.30
2023-03-02T17:16:20.751Z,59.87
2023-03-02T17:18:48.513Z,66.03
2023-03-02T17:21:17.946Z,72.77
2023-03-02T17:23:47.897Z,70.60
2023-03-02T17:26:16.016Z,71.57
2023-03-02T17:28:43.705Z,80.13
2023-03-02T17:31:13.047Z,79.50
2023-03-02T17:33:40.960Z,79.07
2023-03-02T17:36:12.005Z,74.33
2023-03-02T17:38:40.370Z,82.33
2023-03-02T17:41:09.495Z,82.97
2023-03-02T17:43:42.148Z,82.10
2023-03-02T17:46:14.524Z,73.40
2023-03-02T17:48:43.249Z,82.97
2023-03-02T17:51:11.697Z,81.37
2023-03-02T17:53:39.653Z,87.03
2023-03-02T17:56:07.642Z,89.83
2023-03-02T17:58:44.745Z,88.43
2023-03-02T18:01:15.639Z,87.83
2023-03-02T18:03:44.904Z,83.47
2023-03-02T18:06:13.154Z,84.00
2023-03-02T18:08:41.009Z,87.17
2023-03-02T18:11:08.704Z,89.27
2023-03-02T18:13:36.620Z,91.37
2023-03-02T18:16:04.553Z,101.70
2023-03-02T18:18:33.830Z,97.50
2023-03-02T18:21:01.941Z,92.13
2023-03-02T18:23:30.587Z,93.87
2023-03-02T18:25:58.345Z,99.63
2023-03-02T18:28:26.730Z,101.00
2023-03-02T18:30:54.446Z,105.37
2023-03-02T18:33:22.282Z,99.13
2023-03-02T18:35:51.289Z,105.93
2023-03-02T18:38:19.031Z,101.43
2023-03-02T18:40:46.843Z,103.00
2023-03-02T18:43:14.511Z,100.50
2023-03-02T18:45:42.259Z,102.13
2023-03-02T18:48:10.000Z,96.17
2023-03-02T18:50:39.529Z,103.00
2023-03-02T18:53:09.614Z,101.37
2023-03-02T18:55:38.050Z,97.50
2023-03-02T18:58:07.008Z,95.60
2023-03-02T19:00:35.023Z,106.03
2023-03-02T19:03:02.759Z,107.93
2023-03-02T19:05:30.604Z,103.80
2023-03-02T19:07:58.953Z,109.57
2023-03-02T19:10:27.947Z,99.77
2023-03-02T19:12:55.955Z,98.93
2023-03-02T19:15:24.855Z,100.53
2023-03-02T19:17:53.010Z,106.77
2023-03-02T19:20:22.027Z,110.93
2023-03-02T19:22:49.972Z,105.87
2023-03-02T19:25:17.739Z,109.13
2023-03-02T19:27:46.740Z,106.40
2023-03-02T19:30:19.063Z,110.33
2023-03-02T19:32:46.793Z,107.60
2023-03-02T19:35:17.843Z,102.13
2023-03-02T19:37:46.221Z,104.67
2023-03-02T19:40:17.236Z,101.27
2023-03-02T19:42:47.755Z,100.77
2023-03-02T19:45:19.446Z,102.67
2023-03-02T19:47:47.338Z,100.93
2023-03-02T19:50:17.007Z,93.03
2023-03-02T19:52:44.798Z,90.17
2023-03-02T19:55:15.216Z,91.37
2023-03-02T19:57:43.241Z,96.30
2023-03-02T20:00:16.647Z,91.73
2023-03-02T20:02:45.098Z,97.77
2023-03-02T20:05:12.834Z,93.53
2023-03-02T20:07:41.857Z,91.80
2023-03-02T20:10:11.375Z,84.13
2023-03-02T20:12:39.056Z,96.40
2023-03-02T20:15:07.979Z,96.57
2023-03-02T20:17:37.032Z,98.07
2023-03-02T20:20:05.652Z,96.00
2023-03-02T20:22:33.283Z,94.40
2023-03-02T20:25:00.890Z,92.10
2023-03-02T20:27:28.680Z,87.30
2023-03-02T20:29:56.452Z,96.07
2023-03-02T20:32:24.626Z,90.73
2023-03-02T20:34:53.715Z,94.20
2023-03-02T20:37:26.026Z,86.30
2023-03-02T20:39:54.678Z,97.87
2023-03-02T20:42:22.385Z,93.23
2023-03-02T20:44:50.227Z,90.80
2023-03-02T20:47:18.003Z,90.80
2023-03-02T20:49:45.832Z,89.43
2023-03-02T20:52:14.933Z,89.80
2023-03-02T20:54:43.831Z,92.40
2023-03-02T20:57:15.990Z,90.13
2023-03-02T20:59:45.754Z,92.03
2023-03-02T21:02:14.330Z,94.37
2023-03-02T21:04:43.340Z,91.70
2023-03-02T21:07:11.689Z,86.03
2023-03-02T21:09:41.782Z,90.60
2023-03-02T21:12:11.749Z,94.40
2023-03-02T21:14:40.584Z,87.77
2023-03-02T21:17:09.242Z,93.23
2023-03-02T21:19:37.997Z,96.87
2023-03-02T21:22:05.982Z,92.97
2023-03-02T21:24:33.721Z,98.10
2023-03-02T21:27:02.842Z,101.27
2023-03-02T21:29:30.584Z,95.40
2023-03-02T21:31:58.565Z,99.37
2023-03-02T21:34:26.307Z,102.27
2023-03-02T21:36:54.048Z,105.93
2023-03-02T21:39:23.748Z,99.87
2023-03-02T21:41:52.404Z,103.40
2023-03-02T21:44:21.542Z,95.73
2023-03-02T21:46:49.735Z,102.30
2023-03-02T21:49:19.841Z,100.30
2023-03-02T21:51:49.883Z,100.53
2023-03-02T21:54:17.792Z,106.13
2023-03-02T21:56:45.782Z,99.60
2023-03-02T21:59:13.581Z,100.60
2023-03-02T22:01:42.778Z,95.40
2023-03-02T22:04:10.571Z,94.83
2023-03-02T22:06:38.503Z,95.13
2023-03-02T22:09:06.231Z,101.67
2023-03-02T22:11:36.138Z,95.50
2023-03-02T22:14:11.948Z,91.53
2023-03-02T22:16:43.101Z,93.73
2023-03-02T22:19:24.306Z,95.47
2023-03-02T22:21:53.217Z,95.73
2023-03-02T22:24:24.416Z,99.07
2023-03-02T22:26:59.084Z,98.17
2023-03-02T22:29:29.519Z,96.20
2023-03-02T22:32:07.194Z,94.40
2023-03-02T22:34:44.206Z,88.13
2023-03-02T22:37:14.347Z,91.83
2023-03-02T22:39:42.544Z,91.77
2023-03-02T22:42:14.997Z,89.07
2023-03-02T22:44:42.834Z,96.23
2023-03-02T22:47:16.488Z,101.53
2023-03-02T22:49:44.436Z,97.00
2023-03-02T22:52:18.273Z,98.43
2023-03-02T22:54:46.579Z,102.43
2023-03-02T22:57:24.067Z,96.83
2023-03-02T22:59:51.780Z,99.50
2023-03-02T23:02:22.356Z,99.33
2023-03-02T23:04:50.342Z,96.60
2023-03-02T23:07:20.021Z,99.93
2023-03-02T23:09:48.925Z,102.13
2023-03-02T23:12:20.797Z,96.60
2023-03-02T23:14:50.914Z,98.80
2023-03-02T23:17:22.133Z,99.77
2023-03-02T23:19:51.498Z,105.00
2023-03-02T23:22:19.821Z,99.53
2023-03-02T23:24:47.432Z,101.83
2023-03-02T23:27:15.323Z,94.63
2023-03-02T23:29:43.004Z,103.50
2023-03-02T23:32:10.670Z,101.60
2023-03-02T23:34:39.774Z,101.03
2023-03-02T23:37:07.473Z,108.53
2023-03-02T23:39:35.157Z,99.97
2023-03-02T23:42:02.955Z,101.77
2023-03-02T23:44:30.661Z,92.67
2023-03-02T23:46:58.450Z,99.10
2023-03-02T23:49:26.116Z,97.40
2023-03-02T23:51:55.128Z,90.57
2023-03-02T23:54:22.764Z,93.17
2023-03-02T23:56:50.409Z,90.50
2023-03-02T23:59:18.079Z,89.90
